Time;durP1;ratioP1;P1;durP2;ratioP2;P2;SDS_P1;SDS_P2;PMS_P1;PMS_P2;Temp;Humidity;BMP_temperature;BMP_pressure;BME280_temperature;BME280_humidity;BME280_pressure;Samples;Min_cycle;Max_cycle;Signal;HPM_P1;HPM_P2
2022/10/12 00:02:17;;;;;;;4.80;2.38;;;8.20;99.90;;;;;;20476846;28;20418;-40
2022/10/12 00:12:18;;;;;;;6.03;2.28;;;8.20;99.90;;;;;;20478471;28;20383;-40
2022/10/12 00:22:19;;;;;;;2.72;1.50;;;8.20;99.90;;;;;;20475021;28;20459;-40
2022/10/12 00:32:20;;;;;;;5.68;2.55;;;8.10;99.90;;;;;;20480469;28;20066;-40
2022/10/12 00:42:22;;;;;;;2.03;1.17;;;8.00;99.90;;;;;;20474950;28;20063;-40
2022/10/12 00:52:41;;;;;;;4.13;1.83;;;8.00;99.90;;;;;;20471101;28;20800;-40
2022/10/12 01:02:43;;;;;;;3.40;1.13;;;7.90;99.90;;;;;;20480736;28;20318;-40
2022/10/12 01:12:47;;;;;;;3.15;1.63;;;7.90;99.90;;;;;;20468128;28;20042;-40
2022/10/12 01:23:01;;;;;;;8.15;2.30;;;7.90;99.90;;;;;;20472879;28;20071;-40
2022/10/12 01:33:40;;;;;;;2.22;1.33;;;8.00;99.90;;;;;;20472371;28;20912;-40
2022/10/12 01:43:43;;;;;;;9.18;1.40;;;7.90;99.90;;;;;;20407343;28;20803;-40
2022/10/12 01:54:09;;;;;;;3.10;1.48;;;7.80;99.90;;;;;;20425618;28;20070;-40
2022/10/12 02:04:26;;;;;;;4.05;1.45;;;7.70;99.90;;;;;;20472080;28;21812;-40
2022/10/12 02:14:41;;;;;;;2.77;1.20;;;7.70;99.90;;;;;;20468024;28;20070;-40
2022/10/12 02:24:47;;;;;;;3.45;2.05;;;7.60;99.90;;;;;;20463721;28;20554;-40
2022/10/12 02:35:05;;;;;;;3.60;1.73;;;7.40;99.90;;;;;;20471734;28;20078;-40
2022/10/12 02:45:09;;;;;;;5.10;2.05;;;7.40;99.90;;;;;;20465524;28;20931;-40
2022/10/12 02:55:10;;;;;;;9.13;2.17;;;7.40;99.90;;;;;;20472357;28;20047;-40
2022/10/12 03:05:11;;;;;;;3.30;1.50;;;7.30;99.90;;;;;;20467640;28;20090;-40
2022/10/12 03:15:13;;;;;;;2.53;0.98;;;7.30;99.90;;;;;;20465586;28;20119;-40
2022/10/12 03:25:14;;;;;;;2.95;1.38;;;7.30;99.90;;;;;;20468845;28;20356;-40
2022/10/12 03:35:15;;;;;;;7.40;2.42;;;7.20;99.90;;;;;;20468384;28;20106;-40
2022/10/12 03:45:16;;;;;;;8.32;2.42;;;7.20;99.90;;;;;;20440381;28;20036;-40
2022/10/12 03:55:17;;;;;;;4.32;1.95;;;7.20;99.90;;;;;;20400255;28;20963;-40
2022/10/12 04:05:18;;;;;;;8.35;2.13;;;7.10;99.90;;;;;;20440850;28;20319;-40
2022/10/12 04:15:19;;;;;;;8.77;1.75;;;7.00;99.90;;;;;;20398933;28;20133;-40
2022/10/12 04:25:20;;;;;;;3.90;1.90;;;6.90;99.90;;;;;;20414185;28;20114;-40
2022/10/12 04:35:21;;;;;;;3.03;1.65;;;6.80;99.90;;;;;;20396970;28;20083;-40
2022/10/12 04:45:22;;;;;;;3.38;2.05;;;6.70;99.90;;;;;;20392428;28;20047;-40
2022/10/12 04:55:23;;;;;;;3.53;1.55;;;6.70;99.90;;;;;;20388035;28;20075;-40
2022/10/12 05:05:24;;;;;;;6.70;2.42;;;6.60;99.90;;;;;;20382804;28;20105;-40
2022/10/12 05:15:26;;;;;;;3.65;2.38;;;6.60;99.90;;;;;;20385227;28;20517;-40
2022/10/12 05:25:28;;;;;;;4.85;3.08;;;6.60;99.90;;;;;;20425834;28;20120;-40
2022/10/12 05:35:29;;;;;;;4.30;2.10;;;6.60;99.90;;;;;;20472976;28;20042;-39
2022/10/12 05:45:30;;;;;;;5.85;1.70;;;6.60;99.90;;;;;;20469999;28;20047;-40
2022/10/12 05:55:31;;;;;;;5.03;2.28;;;6.60;99.90;;;;;;20469335;28;20156;-40
2022/10/12 06:05:32;;;;;;;6.55;3.92;;;6.70;99.90;;;;;;20462307;28;20348;-40
2022/10/12 06:15:35;;;;;;;2.95;1.55;;;6.60;99.90;;;;;;20470966;28;20035;-40
2022/10/12 06:25:35;;;;;;;9.63;3.17;;;6.70;99.90;;;;;;20456955;28;20118;-40
2022/10/12 06:35:37;;;;;;;28.90;15.00;;;6.70;99.90;;;;;;20461321;28;20035;-40
2022/10/12 06:45:39;;;;;;;9.93;4.95;;;6.70;99.90;;;;;;20461063;28;20118;-40
2022/10/12 06:55:40;;;;;;;8.57;3.08;;;6.90;99.90;;;;;;20455588;28;20126;-40
2022/10/12 07:05:41;;;;;;;15.07;6.55;;;7.00;99.90;;;;;;20454904;28;20129;-40
2022/10/12 07:15:48;;;;;;;9.35;3.85;;;7.10;99.90;;;;;;20477975;28;20050;-40
2022/10/12 07:25:51;;;;;;;7.17;3.60;;;7.30;99.90;;;;;;20489098;28;20051;-40
2022/10/12 07:35:54;;;;;;;6.90;2.63;;;7.60;99.90;;;;;;20487955;28;20545;-40
2022/10/12 07:45:55;;;;;;;6.60;2.13;;;7.90;99.90;;;;;;20487588;28;20439;-40
2022/10/12 07:56:04;;;;;;;3.22;1.55;;;8.10;99.90;;;;;;20483912;28;20113;-40
2022/10/12 08:06:15;;;;;;;3.35;1.73;;;8.30;99.90;;;;;;20472875;28;20176;-40
2022/10/12 08:16:19;;;;;;;7.57;3.65;;;8.50;99.90;;;;;;20431651;28;20090;-40
2022/10/12 08:26:20;;;;;;;6.15;2.33;;;9.00;99.90;;;;;;20467189;28;20070;-40
2022/10/12 08:36:21;;;;;;;5.78;2.65;;;9.60;99.90;;;;;;20462340;28;20043;-41
2022/10/12 08:46:24;;;;;;;7.70;2.58;;;10.20;99.90;;;;;;20463841;28;20054;-40
2022/10/12 08:56:25;;;;;;;4.18;2.33;;;10.80;99.90;;;;;;20436011;28;20434;-40
2022/10/12 09:06:56;;;;;;;4.05;2.33;;;11.00;99.90;;;;;;20457893;28;20070;-40
2022/10/12 09:17:01;;;;;;;5.40;2.67;;;11.20;99.90;;;;;;20460537;28;20290;-40
2022/10/12 09:27:15;;;;;;;4.53;2.25;;;11.40;99.90;;;;;;20468364;28;20335;-40
2022/10/12 09:37:30;;;;;;;3.28;1.75;;;11.70;99.90;;;;;;20461894;28;20187;-40
2022/10/12 09:47:32;;;;;;;5.60;3.08;;;12.10;99.90;;;;;;20466891;28;20121;-40
2022/10/12 09:57:42;;;;;;;2.50;1.55;;;12.50;99.90;;;;;;20450768;28;20142;-40
2022/10/12 10:07:43;;;;;;;4.90;2.15;;;12.70;99.90;;;;;;20478254;28;20857;-40
2022/10/12 10:17:58;;;;;;;2.90;1.88;;;12.90;99.90;;;;;;20479294;28;20446;-40
2022/10/12 10:28:21;;;;;;;6.22;1.83;;;13.20;99.90;;;;;;20483050;28;21848;-39
2022/10/12 10:38:22;;;;;;;2.30;1.27;;;13.50;99.90;;;;;;20487468;28;20454;-39
2022/10/12 10:48:29;;;;;;;3.22;1.45;;;14.20;99.90;;;;;;20464541;28;20077;-40
2022/10/12 10:58:33;;;;;;;3.60;0.77;;;14.70;99.90;;;;;;20453710;28;20186;-39
2022/10/12 11:08:37;;;;;;;3.10;1.25;;;15.60;99.90;;;;;;20480671;28;20498;-39
2022/10/12 11:18:49;;;;;;;6.85;3.38;;;16.40;99.90;;;;;;20475317;28;20125;-39
2022/10/12 11:28:53;;;;;;;2.90;1.40;;;16.80;99.90;;;;;;20474870;28;20910;-40
2022/10/12 11:39:04;;;;;;;6.38;2.05;;;16.90;99.90;;;;;;20481507;28;20043;-39
2022/10/12 11:49:17;;;;;;;3.65;1.40;;;15.90;99.90;;;;;;20484153;28;20900;-40
2022/10/12 11:59:29;;;;;;;7.32;2.88;;;15.20;99.90;;;;;;20478901;28;20078;-39
2022/10/12 12:09:42;;;;;;;3.35;1.75;;;14.90;99.90;;;;;;20479605;28;20510;-39
2022/10/12 12:19:50;;;;;;;4.22;1.58;;;15.00;99.90;;;;;;20474569;28;20574;-39
2022/10/12 12:29:52;;;;;;;2.53;1.23;;;15.90;99.90;;;;;;20547652;28;20070;-39
2022/10/12 12:39:58;;;;;;;3.47;1.40;;;16.80;99.90;;;;;;20548677;28;20125;-39
2022/10/12 12:50:01;;;;;;;5.25;2.45;;;16.50;99.90;;;;;;20544619;28;20186;-39
2022/10/12 13:00:21;;;;;;;3.90;1.52;;;16.00;99.90;;;;;;20547285;28;20078;-40
2022/10/12 13:10:46;;;;;;;4.18;1.83;;;15.20;99.90;;;;;;20541588;28;20125;-39
2022/10/12 13:20:48;;;;;;;4.13;1.73;;;15.00;99.90;;;;;;20544290;28;20687;-39
2022/10/12 13:31:04;;;;;;;3.30;1.70;;;14.90;99.90;;;;;;20466124;28;20093;-39
2022/10/12 13:41:15;;;;;;;6.53;2.22;;;14.90;99.90;;;;;;20458897;28;20995;-39
2022/10/12 13:51:25;;;;;;;4.68;2.75;;;15.10;99.90;;;;;;20456778;28;20086;-40
2022/10/12 14:01:26;;;;;;;4.95;2.03;;;15.60;99.90;;;;;;20467257;28;20064;-38
2022/10/12 14:11:28;;;;;;;8.05;3.00;;;16.80;99.90;;;;;;20455802;28;20061;-37
2022/10/12 14:21:29;;;;;;;6.90;2.45;;;16.40;99.90;;;;;;20458711;28;20574;-37
2022/10/12 14:31:51;;;;;;;4.05;2.45;;;16.90;99.90;;;;;;20535224;28;20042;-37
2022/10/12 14:41:53;;;;;;;3.20;1.65;;;16.20;99.90;;;;;;20542039;28;20952;-40
2022/10/12 14:51:54;;;;;;;3.08;1.60;;;16.10;99.90;;;;;;20537429;28;20113;-39
2022/10/12 15:01:55;;;;;;;2.33;0.88;;;15.70;99.90;;;;;;20549117;28;20074;-39
2022/10/12 15:11:56;;;;;;;3.00;1.58;;;15.50;99.90;;;;;;20557100;28;20031;-39
2022/10/12 15:21:57;;;;;;;2.55;1.13;;;15.70;99.90;;;;;;20540667;28;20069;-39
2022/10/12 15:31:59;;;;;;;2.30;1.13;;;15.60;99.90;;;;;;20541852;28;21175;-39
2022/10/12 15:42:00;;;;;;;2.90;1.40;;;15.40;99.90;;;;;;20552173;28;20464;-39
2022/10/12 15:52:01;;;;;;;6.22;0.98;;;15.30;99.90;;;;;;20549455;28;20398;-39
2022/10/12 16:02:02;;;;;;;3.58;1.40;;;15.00;99.90;;;;;;20553733;28;20145;-39
2022/10/12 16:12:03;;;;;;;5.40;1.45;;;14.70;99.90;;;;;;20548106;28;20529;-39
2022/10/12 16:22:04;;;;;;;2.97;1.13;;;14.60;99.90;;;;;;20544628;28;20050;-39
2022/10/12 16:32:05;;;;;;;1.63;0.77;;;14.30;99.90;;;;;;20579537;28;20085;-39
2022/10/12 16:42:06;;;;;;;3.50;1.75;;;14.00;99.90;;;;;;20571051;28;20047;-39
2022/10/12 16:52:07;;;;;;;5.45;1.35;;;13.60;99.90;;;;;;20568084;28;20062;-40
2022/10/12 17:02:10;;;;;;;2.10;1.15;;;13.40;99.90;;;;;;20552105;28;20740;-39
2022/10/12 17:12:11;;;;;;;2.80;1.33;;;13.00;99.90;;;;;;20551248;28;20113;-39
2022/10/12 17:22:13;;;;;;;3.50;1.50;;;12.70;99.90;;;;;;20545598;28;23319;-39
2022/10/12 17:32:14;;;;;;;4.80;1.77;;;12.50;99.90;;;;;;20539962;28;20336;-40
2022/10/12 17:42:15;;;;;;;4.60;1.73;;;12.30;99.90;;;;;;20548124;28;20137;-39
2022/10/12 17:52:16;;;;;;;3.67;1.83;;;12.10;99.90;;;;;;20549426;28;20130;-40
2022/10/12 18:02:18;;;;;;;6.47;1.73;;;11.90;99.90;;;;;;20541020;28;20171;-39
2022/10/12 18:12:19;;;;;;;3.55;2.38;;;11.90;99.90;;;;;;20567256;28;20133;-39
2022/10/12 18:22:20;;;;;;;5.10;2.88;;;11.90;99.90;;;;;;20544434;28;20169;-39
2022/10/12 18:32:21;;;;;;;5.68;2.85;;;11.90;99.90;;;;;;20542576;28;20060;-39
2022/10/12 18:42:22;;;;;;;7.35;3.90;;;11.90;99.90;;;;;;20547986;28;20552;-39
2022/10/12 18:52:23;;;;;;;7.43;3.38;;;12.00;99.90;;;;;;20536809;28;20122;-39
2022/10/12 19:02:24;;;;;;;4.82;2.65;;;12.10;99.90;;;;;;20535078;28;20114;-39
2022/10/12 19:12:25;;;;;;;3.95;3.03;;;12.10;99.90;;;;;;20545401;28;20301;-39
2022/10/12 19:22:26;;;;;;;4.30;2.22;;;12.00;99.90;;;;;;20554401;28;20108;-39
2022/10/12 19:32:27;;;;;;;4.05;2.20;;;11.80;99.90;;;;;;20553798;28;20070;-39
2022/10/12 19:42:28;;;;;;;5.35;2.83;;;11.60;99.90;;;;;;20550334;28;20138;-39
2022/10/12 19:52:29;;;;;;;5.53;2.97;;;11.40;99.90;;;;;;20551127;28;20065;-39
2022/10/12 20:02:31;;;;;;;12.65;3.58;;;11.20;99.90;;;;;;20548233;28;20076;-39
2022/10/12 20:12:33;;;;;;;5.13;2.90;;;11.20;99.90;;;;;;20546442;28;20117;-39
2022/10/12 20:22:34;;;;;;;5.65;3.22;;;11.40;99.90;;;;;;20543789;28;20636;-39
2022/10/12 20:32:35;;;;;;;6.50;2.55;;;11.40;99.90;;;;;;20552911;28;20376;-39
2022/10/12 20:42:36;;;;;;;7.05;2.97;;;11.40;99.90;;;;;;20538795;28;20073;-39
2022/10/12 20:52:37;;;;;;;7.47;3.35;;;11.50;99.90;;;;;;21201277;22;20628;-82
2022/10/12 21:02:38;;;;;;;3.80;1.92;;;11.60;99.90;;;;;;20663349;28;20133;-82
2022/10/12 21:12:39;;;;;;;7.13;2.13;;;11.50;99.90;;;;;;20644849;28;20038;-82
2022/10/12 21:22:44;;;;;;;4.72;2.90;;;11.50;99.90;;;;;;20667809;28;20041;-82
2022/10/12 21:32:45;;;;;;;3.42;1.50;;;11.60;99.90;;;;;;20646178;28;20673;-81
2022/10/12 21:42:46;;;;;;;4.75;2.47;;;11.60;99.90;;;;;;20646595;28;20037;-82
2022/10/12 21:52:47;;;;;;;5.30;2.80;;;11.60;99.90;;;;;;20655099;28;20539;-82
2022/10/12 22:02:48;;;;;;;4.32;3.08;;;11.60;99.90;;;;;;20667192;28;20042;-81
2022/10/12 22:12:49;;;;;;;7.60;2.78;;;11.60;99.90;;;;;;20661411;28;20049;-81
2022/10/12 22:22:50;;;;;;;4.55;2.10;;;11.70;99.90;;;;;;20679377;28;20043;-82
2022/10/12 22:32:51;;;;;;;10.70;3.00;;;11.80;99.90;;;;;;20655502;28;20111;-82
2022/10/12 22:42:52;;;;;;;6.05;3.65;;;11.70;99.90;;;;;;20657658;28;20041;-81
2022/10/12 22:52:53;;;;;;;7.00;2.95;;;11.70;99.90;;;;;;20661821;28;20061;-82
2022/10/12 23:02:54;;;;;;;5.82;3.15;;;11.80;99.90;;;;;;20665455;28;20046;-82
2022/10/12 23:12:55;;;;;;;8.05;2.67;;;11.80;99.90;;;;;;20645040;28;20038;-81
2022/10/12 23:22:56;;;;;;;12.98;3.65;;;11.80;99.90;;;;;;20636408;28;20061;-82
2022/10/12 23:32:57;;;;;;;5.65;2.90;;;11.80;99.90;;;;;;20647023;28;20046;-82
2022/10/12 23:42:58;;;;;;;5.70;3.97;;;11.80;99.90;;;;;;20637074;28;20049;-82
2022/10/12 23:52:59;;;;;;;9.85;4.40;;;11.70;99.90;;;;;;20658563;28;20058;-82
